UPS MD11 at Almaty on Jan 11th 2018, runway excursion on turn off

Last Update: January 11, 2018 / 17:10:18 GMT/Zulu time

Bookmark this article
Incident Facts

Date of incident
Jan 11, 2018

Classification
Incident

Airline
UPS

Aircraft Registration
N271UP

ICAO Type Designator
MD11

Airport ICAO Code
UAAA

A UPS United Parcel Service McDonnell Douglas MD-11 freighter, registration N271UP performing freight flight 5X-11 from Seoul (South Korea) to Almaty (Kazakhstan), landed on Almaty's runway 23R and rolled out safely. When the aircraft attempted to vacate the runway at the last right hand exit the aircraft did not follow the turn and went off the paved surface of the runway coming to a stop with all gear on soft (but frozen) ground about 20 meters off the edge of the runway.

The airport reported instead of turning right the aircraft continued straight when the aircraft attempted to vacate the runway coming to a stop about 20 meters off the paved surface of the runway.

Metars:
UAAA 111300Z 32002MPS 9999 OVC050 M03/M04 Q1029 R23L/4/0537 NOSIG=
UAAA 111230Z 20002MPS 160V240 5000 BR OVC033 M03/M03 Q1029 R23L/4/2034 NOSIG=
UAAA 111200Z 20002MPS 170V240 3800 BR OVC026 M03/M03 Q1030 R23L/4/2034 NOSIG=
UAAA 111130Z 21002MPS 170V250 2100 -SN BR OVC019 M03/M03 Q1030 R23R/4/2035 R23L/4/2034 NOSIG=
UAAA 111100Z 21002MPS 1100 R23R/1100N R23L/1500U SN BR OVC014 M03/M03 Q1030 R23R/4/2035 R23L/4/2034 NOSIG=
UAAA 111030Z 21002MPS 0900 R23R/1200 R23L/1400 SN FZFG BKN010 OVC022 M03/M03 Q1030 R88/4/1037 TEMPO 0300 SN FZFG=
UAAA 111000Z 20002MPS 0650 R23R/1000 R23L/1100 SN FZFG BKN008 OVC022 M03/M03 Q1029 R88/4/0540 TEMPO 0300 SN FZFG=
UAAA 110930Z 27002MPS 250V340 1800 R23R/1900N R23L/1800U SN BR BKN007 OVC021 M03/M03 Q1029 R88/4/0540 NOSIG=
UAAA 110900Z 30004MPS 2200 -SN BR BKN011 OVC024 M02/M03 Q1029 R88/4/0540 NOSIG=
UAAA 110830Z 30005MPS 270V330 1800 R23R/1900U R23L/1800U SN BR BKN008 OVC023 M02/M03 Q1029 R88/4/0540 NOSIG=
UAAA 110800Z 30002MPS 270V330 1000 R23R/1000 R23L/1200D SN BR BKN007 OVC021 M02/M03 Q1028 R88/4/0540 NOSIG=
Aircraft Registration Data
Registration mark
N271UP
Country of Registration
United States
Date of Registration
P gnAjfhAiAdikidm Subscribe to unlock
TCDS Ident. No.
Manufacturer
MCDONNELL DOUGLAS
Aircraft Model / Type
MD-11F
Number of Seats
ICAO Aircraft Type
MD11
Year of Manufacture
Serial Number
Aircraft Address / Mode S Code (HEX)
Engine Count
Engine Manufacturer
Engine Model
Engine Type
Pounds of Thrust
Main Owner
FjhlepAikdgqApqjcdmkcekhgjehmkeljj Amcdbihmddh dicfAfmgcpkqhnij fgdmqmmqeegcmbdgbnilfjjj Subscribe to unlock
Incident Facts

Date of incident
Jan 11, 2018

Classification
Incident

Airline
UPS

Aircraft Registration
N271UP

ICAO Type Designator
MD11

Airport ICAO Code
UAAA

This article is published under license from Avherald.com. © of text by Avherald.com.
Article source

You can read 2 more free articles without a subscription.

Subscribe now and continue reading without any limits!

Are you a subscriber? Login
Subscribe

Read unlimited articles and receive our daily update briefing. Gain better insights into what is happening in commercial aviation safety.

Free newsletter

Want to know more and stay ahead? Get our free weekly newsletter and join 5465 existing subscribers.

By subscribing, you accept our terms and conditions and confirm that you've read our privacy policy.

Send tip

Support AeroInside by sending a small tip amount.

Related articles

Newest articles

Subscribe today

Are you researching aviation incidents? Get access to AeroInside Insights, unlimited read access and receive the daily newsletter.

Pick your plan and subscribe

Partner

Blockaviation logo

A new way to document and demonstrate airworthiness compliance and aircraft value. Find out more.

Virtual Speech logo

ELITE Simulation Solutions is a leading global provider of Flight Simulation Training Devices, IFR training software as well as flight controls and related services. Find out more.

Get updates

Never miss an article from AeroInside. Subscribe to our free weekly newsletter and join 5465 existing subscribers.

By subscribing, you accept our terms and conditions and that you've read our privacy policy.

AeroInside Blog
Popular aircraft
Airbus A320
Boeing 737-800
Boeing 737-800 MAX
Popular airlines
American Airlines
United
Delta
Air Canada
Lufthansa
British Airways